Terminal Aerodrome Forecast
Issued by NWS

Home | Current Version | Previous Version | Graphics & Text | Print | Product List | Glossary On
Versions: 1 2 3 4 5 6 7 8 9 10 11 12 13 14 15 16 17
000
FTUS43 KIWX 210400 AAA
TAFSBN
TAF AMD
KSBN 210428Z 2104/2124 22008KT P6SM BKN025 OVC100
     FM210730 24008KT 5SM BR VCTS BKN060CB
     FM211000 26008KT P6SM BKN015
     FM211500 31015G22KT P6SM BKN040=

USA.gov is the U.S. government's official web portal to all federal, state and local government web resources and services.